Terminal Aerodrome Forecast
Issued by NWS Upton, NY

Home | Current Version | Previous Version | Text Only | Print | Product List | Glossary On
Versions: 1 2 3 4 5 6 7 8 9 10 11 12 13 14 15 16 17 18 19 20 21 22 23 24 25 26
000
FTUS41 KOKX 210200 AAA
TAFBDR
TAF AMD
KBDR 210231Z 2103/2124 23008KT P6SM SCT150 BKN250
     FM210600 VRB04KT P6SM FEW035 BKN120
     FM211500 12005KT P6SM -RA BKN035 OVC080=

USA.gov is the U.S. government's official web portal to all federal, state and local government web resources and services.